Price Town, United Kingdom
Current Conditions -  °F | °C
As of 8:50 AM on Sunday 21 Dec 2014 (Local Time) from EGDX Reporting Station
Rain Showers Rain Showers  
Wind Chill: 41°   Ceiling: 400
Heat Index: 48°   Visibility: 4mi
Dew Point: 46°   Wind: 20mph
Humidity: 93%   Direction: 250°WSW
Pressure: 30.33"   Gusts: NA
Location:  51.62°N, 3.54°W
Report Text: EGDX 210850Z AUTO 25017KT 6000 -SHRA BKN004/// SCT011/// 09/08 Q1027
Loading
Personal Weather Stations






























Interactive Weather Map New forecast layout! Learn more

10-Day Weather Forecast

Advertisements
Track Severe Weather on mobile